createdAt,value
2022-08-21T00:00:32.880Z,2.28
2022-08-21T00:03:34.807Z,2.78
2022-08-21T00:06:38.460Z,0.88
2022-08-21T00:09:40.863Z,1.00
2022-08-21T00:12:44.292Z,0.93
2022-08-21T00:15:47.952Z,1.08
2022-08-21T00:18:51.140Z,0.75
2022-08-21T00:24:56.065Z,1.27
2022-08-21T00:27:58.056Z,4.97
2022-08-21T00:31:00.538Z,1.73
2022-08-21T00:34:02.528Z,1.43
2022-08-21T00:37:05.374Z,3.22
2022-08-21T00:40:12.004Z,1.50
2022-08-21T00:43:18.337Z,1.88
2022-08-21T00:46:20.235Z,2.47
2022-08-21T00:49:22.196Z,1.25
2022-08-21T00:52:29.249Z,0.70
2022-08-21T00:55:32.664Z,2.17
2022-08-21T00:58:36.966Z,1.23
2022-08-21T01:01:39.864Z,2.72
2022-08-21T01:04:42.131Z,1.92
2022-08-21T01:07:45.428Z,0.50
2022-08-21T01:10:48.900Z,1.67
2022-08-21T01:13:56.417Z,0.63
2022-08-21T01:17:00.136Z,1.15
2022-08-21T01:20:06.082Z,1.13
2022-08-21T01:23:08.510Z,0.95
2022-08-21T01:26:11.509Z,1.50
2022-08-21T01:29:27.861Z,0.98
2022-08-21T01:32:29.821Z,0.93
2022-08-21T01:35:31.757Z,0.60
2022-08-21T01:38:33.721Z,1.52
2022-08-21T01:41:35.750Z,4.90
2022-08-21T01:44:37.848Z,6.13
2022-08-21T01:47:39.823Z,2.80
2022-08-21T01:50:41.794Z,0.40
2022-08-21T01:53:43.757Z,2.10
2022-08-21T01:56:49.430Z,1.75
2022-08-21T01:59:51.360Z,1.00
2022-08-21T02:02:53.978Z,1.65
2022-08-21T02:05:56.087Z,3.38
2022-08-21T02:08:58.033Z,0.60
2022-08-21T02:12:00.419Z,4.15
2022-08-21T02:15:04.282Z,2.20
2022-08-21T02:18:07.676Z,0.70
2022-08-21T02:21:09.738Z,0.70
2022-08-21T02:24:12.646Z,1.75
2022-08-21T02:27:14.602Z,2.97
2022-08-21T02:30:21.626Z,2.55
2022-08-21T02:33:24.378Z,1.10
2022-08-21T02:36:26.465Z,1.10
2022-08-21T02:39:28.424Z,0.55
2022-08-21T02:42:31.351Z,2.72
2022-08-21T02:45:33.839Z,2.22
2022-08-21T02:48:36.649Z,1.63
2022-08-21T02:51:38.605Z,3.33
2022-08-21T02:54:40.775Z,0.85
2022-08-21T02:57:42.749Z,2.03
2022-08-21T03:00:46.212Z,5.53
2022-08-21T03:03:52.438Z,3.03
2022-08-21T03:06:56.075Z,0.98
2022-08-21T03:09:57.993Z,4.43
2022-08-21T03:12:59.896Z,3.05
2022-08-21T03:16:02.137Z,2.10
2022-08-21T03:19:07.100Z,1.52
2022-08-21T03:22:09.235Z,1.48
2022-08-21T03:25:13.982Z,2.15
2022-08-21T03:28:22.498Z,1.08
2022-08-21T03:31:24.966Z,1.40
2022-08-21T03:34:26.975Z,1.40
2022-08-21T03:37:29.593Z,0.93
2022-08-21T03:40:31.514Z,1.65
2022-08-21T03:43:33.688Z,1.35
2022-08-21T03:46:36.075Z,8.85
2022-08-21T03:49:38.484Z,9.03
2022-08-21T03:52:40.445Z,0.50
2022-08-21T03:55:43.160Z,0.50
2022-08-21T03:58:46.003Z,1.55
2022-08-21T04:02:00.634Z,0.63
2022-08-21T04:05:02.723Z,1.23
2022-08-21T04:08:06.437Z,1.98
2022-08-21T04:11:08.971Z,5.30
2022-08-21T04:14:11.061Z,2.13
2022-08-21T04:17:14.031Z,1.92
2022-08-21T04:20:17.810Z,1.67
2022-08-21T04:23:24.035Z,0.82
2022-08-21T04:26:27.286Z,4.40
2022-08-21T04:29:29.831Z,0.32
2022-08-21T04:32:31.794Z,8.82
2022-08-21T04:35:34.153Z,0.70
2022-08-21T04:38:37.558Z,0.63
2022-08-21T04:41:39.745Z,2.65
2022-08-21T04:44:42.344Z,0.30
2022-08-21T04:47:52.616Z,8.52
2022-08-21T04:51:12.911Z,0.68
2022-08-21T04:54:19.455Z,0.65
2022-08-21T04:57:22.273Z,0.75
2022-08-21T05:00:38.962Z,1.27
2022-08-21T05:03:42.140Z,0.73
2022-08-21T05:06:47.758Z,5.00
2022-08-21T05:09:50.405Z,1.35
2022-08-21T05:12:52.595Z,1.20
2022-08-21T05:15:54.515Z,0.93
2022-08-21T05:18:56.492Z,4.00
2022-08-21T05:21:59.207Z,1.75
2022-08-21T05:25:01.176Z,19.27
2022-08-21T05:28:03.497Z,0.50
2022-08-21T05:31:05.576Z,0.80
2022-08-21T05:34:07.714Z,0.67
2022-08-21T05:37:12.510Z,6.57
2022-08-21T05:40:22.720Z,5.25
2022-08-21T05:43:25.129Z,1.45
2022-08-21T05:46:27.063Z,14.60
2022-08-21T05:49:28.956Z,1.13
2022-08-21T05:52:30.967Z,9.95
2022-08-21T05:55:33.963Z,18.05
2022-08-21T06:01:38.211Z,2.30
2022-08-21T06:04:41.326Z,6.80
2022-08-21T06:10:46.292Z,0.63
2022-08-21T06:16:50.161Z,1.95
2022-08-21T06:19:55.187Z,2.40
2022-08-21T06:22:57.296Z,1.95
2022-08-21T06:25:59.508Z,0.80
2022-08-21T06:29:01.408Z,0.82
2022-08-21T06:32:04.185Z,2.75
2022-08-21T06:35:07.206Z,1.20
2022-08-21T06:38:09.608Z,1.33
2022-08-21T06:41:11.870Z,4.80
2022-08-21T06:44:18.030Z,2.20
2022-08-21T06:47:20.172Z,1.30
2022-08-21T06:50:22.099Z,1.58
2022-08-21T06:53:24.056Z,1.27
2022-08-21T06:56:26.103Z,2.70
2022-08-21T06:59:28.496Z,1.85
2022-08-21T07:02:30.646Z,3.25
2022-08-21T07:05:32.602Z,6.68
2022-08-21T07:08:35.189Z,2.25
2022-08-21T07:11:44.159Z,2.00
2022-08-21T07:14:49.816Z,5.17
2022-08-21T07:17:51.719Z,7.10
2022-08-21T07:20:53.757Z,4.63
2022-08-21T07:23:55.793Z,0.85
2022-08-21T07:26:57.774Z,1.00
2022-08-21T07:29:59.757Z,1.17
2022-08-21T07:33:02.064Z,2.42
2022-08-21T07:36:04.605Z,1.77
2022-08-21T07:39:06.614Z,2.43
2022-08-21T07:42:09.052Z,1.08
2022-08-21T07:45:12.158Z,1.25
2022-08-21T07:51:17.711Z,2.30
2022-08-21T07:54:19.628Z,1.02
2022-08-21T07:57:35.465Z,0.50
2022-08-21T08:00:37.509Z,6.30
2022-08-21T08:03:40.036Z,0.52
2022-08-21T08:06:42.081Z,0.65
2022-08-21T08:09:44.488Z,2.72
2022-08-21T08:12:47.429Z,2.35
2022-08-21T08:18:52.394Z,34.08
2022-08-21T08:21:54.555Z,32.42
2022-08-21T08:24:57.185Z,37.23
2022-08-21T08:27:59.106Z,23.80
2022-08-21T08:31:02.048Z,30.10
2022-08-21T08:34:04.637Z,28.67
2022-08-21T08:37:08.830Z,28.38
2022-08-21T08:40:36.831Z,31.08
2022-08-21T08:43:45.367Z,27.70
2022-08-21T08:46:51.332Z,29.35
2022-08-21T08:50:13.329Z,31.25
2022-08-21T08:53:51.632Z,25.08
2022-08-21T08:56:55.857Z,18.63
2022-08-21T09:00:01.258Z,26.55
2022-08-21T10:19:39.197Z,26.20
2022-08-21T10:23:04.611Z,24.65
2022-08-21T10:26:37.148Z,28.30
2022-08-21T10:29:50.730Z,21.25
2022-08-21T10:33:22.074Z,30.52
2022-08-21T10:36:38.509Z,22.08
2022-08-21T10:39:46.254Z,23.50
2022-08-21T10:43:20.476Z,27.15
2022-08-21T10:46:50.249Z,26.85
2022-08-21T10:50:25.352Z,22.73
2022-08-21T10:53:54.686Z,27.08
2022-08-21T10:57:08.385Z,32.97
2022-08-21T11:00:24.340Z,23.00
2022-08-21T11:03:38.897Z,22.65
2022-08-21T11:06:49.727Z,23.67
2022-08-21T11:09:55.208Z,24.73
2022-08-21T11:13:10.023Z,29.88
2022-08-21T11:16:49.597Z,26.30
2022-08-21T11:20:23.212Z,21.73
2022-08-21T11:23:33.006Z,22.38
2022-08-21T11:27:19.173Z,27.88
2022-08-21T11:30:21.592Z,25.70
2022-08-21T11:33:35.824Z,13.55
2022-08-21T11:36:47.004Z,19.10
2022-08-21T11:40:13.628Z,18.50
2022-08-21T11:43:24.449Z,21.25
2022-08-21T11:47:03.892Z,16.70
2022-08-21T11:50:34.798Z,16.48
2022-08-21T11:53:38.157Z,20.08
2022-08-21T11:56:48.899Z,22.70
2022-08-21T11:59:56.750Z,20.65
2022-08-21T12:03:09.366Z,18.10
2022-08-21T12:06:24.154Z,18.00
2022-08-21T12:09:26.425Z,19.70
2022-08-21T12:12:39.956Z,23.55
2022-08-21T12:15:41.902Z,18.45
2022-08-21T12:18:44.659Z,24.98
2022-08-21T12:21:58.741Z,20.83
2022-08-21T12:25:10.930Z,17.65
2022-08-21T12:28:23.064Z,28.93
2022-08-21T12:31:27.282Z,28.70
2022-08-21T12:34:45.837Z,16.13
2022-08-21T12:38:09.357Z,14.63
2022-08-21T12:41:25.641Z,16.35
2022-08-21T12:44:56.296Z,13.98
2022-08-21T12:48:11.632Z,15.77
2022-08-21T12:51:17.153Z,15.10
2022-08-21T12:54:38.288Z,124.43
2022-08-21T12:57:43.002Z,199.43
2022-08-21T13:00:54.024Z,45.50
2022-08-21T13:04:04.878Z,60.20
2022-08-21T13:07:15.061Z,19.50
2022-08-21T13:10:25.150Z,18.38
2022-08-21T13:13:28.763Z,53.35
2022-08-21T13:16:32.223Z,28.45
2022-08-21T13:19:35.211Z,34.47
2022-08-21T13:22:46.253Z,34.92
2022-08-21T13:25:48.162Z,34.42
2022-08-21T13:28:51.478Z,15.38
2022-08-21T13:31:57.015Z,26.83
2022-08-21T13:35:00.436Z,23.38
2022-08-21T13:38:03.245Z,23.55
2022-08-21T13:44:38.166Z,21.05
2022-08-21T13:47:41.414Z,19.20
2022-08-21T13:50:44.787Z,23.08
2022-08-21T13:53:54.245Z,29.45
2022-08-21T13:56:56.735Z,13.55
2022-08-21T14:00:17.647Z,18.23
2022-08-21T14:03:42.510Z,21.70
2022-08-21T14:06:44.592Z,20.70
2022-08-21T14:09:48.746Z,21.48
2022-08-21T14:13:00.525Z,14.52
2022-08-21T14:16:11.081Z,20.23
2022-08-21T14:19:22.823Z,16.92
2022-08-21T14:22:33.549Z,16.02
2022-08-21T14:25:43.811Z,16.33
2022-08-21T14:28:46.222Z,16.88
2022-08-21T14:31:58.021Z,21.77
2022-08-21T14:35:00.223Z,23.27
2022-08-21T14:38:03.505Z,19.60
2022-08-21T14:41:13.414Z,20.42
2022-08-21T14:44:17.905Z,15.82
2022-08-21T14:47:19.828Z,18.85
2022-08-21T14:50:21.907Z,20.77
2022-08-21T14:53:23.829Z,17.23
2022-08-21T14:56:26.796Z,19.93
2022-08-21T14:59:28.963Z,20.85
2022-08-21T15:02:31.069Z,22.90
2022-08-21T15:05:34.197Z,23.67
2022-08-21T15:08:36.574Z,22.25
2022-08-21T15:11:42.185Z,21.63
2022-08-21T15:14:45.285Z,24.55
2022-08-21T15:17:48.478Z,25.55
2022-08-21T15:20:52.587Z,17.85
2022-08-21T15:23:54.912Z,28.92
2022-08-21T15:26:57.598Z,23.60
2022-08-21T15:29:59.625Z,20.10
2022-08-21T15:33:01.602Z,28.13
2022-08-21T15:36:03.926Z,17.90
2022-08-21T15:39:05.873Z,33.55
2022-08-21T15:42:10.659Z,20.48
2022-08-21T15:45:14.123Z,27.67
2022-08-21T15:48:16.054Z,29.38
2022-08-21T15:51:18.446Z,23.83
2022-08-21T15:54:20.370Z,16.42
2022-08-21T15:57:25.101Z,25.63
2022-08-21T16:00:28.947Z,24.40
2022-08-21T16:03:31.000Z,22.13
2022-08-21T16:06:38.581Z,28.73
2022-08-21T16:09:55.154Z,25.85
2022-08-21T16:13:04.023Z,29.60
2022-08-21T16:16:06.912Z,29.23
2022-08-21T16:22:11.297Z,25.38
2022-08-21T16:25:14.880Z,21.30
2022-08-21T16:28:18.663Z,21.85
2022-08-21T16:31:20.821Z,26.23
2022-08-21T16:34:22.859Z,29.53
2022-08-21T16:37:24.963Z,29.13
2022-08-21T16:40:28.549Z,23.47
2022-08-21T16:43:31.361Z,35.67
2022-08-21T16:46:36.816Z,35.55
2022-08-21T16:49:39.078Z,26.38
2022-08-21T16:52:41.029Z,29.20
2022-08-21T16:55:43.840Z,26.70
2022-08-21T16:58:48.262Z,30.80
2022-08-21T17:01:52.246Z,33.15
2022-08-21T17:04:54.360Z,28.23
2022-08-21T17:07:56.257Z,28.73
2022-08-21T17:10:59.100Z,23.90
2022-08-21T17:14:05.251Z,34.75
2022-08-21T17:17:09.601Z,25.50
2022-08-21T17:20:11.718Z,30.83
2022-08-21T17:23:13.763Z,26.53
2022-08-21T17:26:17.125Z,27.48
2022-08-21T17:29:24.095Z,32.65
2022-08-21T17:32:26.073Z,30.15
2022-08-21T17:35:28.526Z,30.23
2022-08-21T17:38:30.405Z,24.45
2022-08-21T17:41:34.419Z,31.10
2022-08-21T17:47:42.762Z,36.83
2022-08-21T17:50:44.698Z,30.73
2022-08-21T17:53:47.467Z,45.80
2022-08-21T17:56:50.077Z,42.17
2022-08-21T17:59:55.270Z,42.05
2022-08-21T18:03:09.038Z,46.30
2022-08-21T18:06:15.507Z,40.25
2022-08-21T18:09:20.806Z,39.65
2022-08-21T18:12:22.866Z,44.70
2022-08-21T18:15:25.050Z,43.47
2022-08-21T18:18:28.627Z,61.67
2022-08-21T18:21:31.311Z,50.17
2022-08-21T18:24:33.274Z,49.05
2022-08-21T18:27:35.637Z,42.25
2022-08-21T18:30:42.964Z,37.55
2022-08-21T18:33:58.454Z,43.88
2022-08-21T18:37:02.738Z,37.97
2022-08-21T18:40:10.362Z,48.65
2022-08-21T18:43:15.651Z,39.58
2022-08-21T18:46:17.898Z,47.88
2022-08-21T18:49:19.860Z,44.03
2022-08-21T18:52:23.244Z,49.78
2022-08-21T18:55:31.657Z,45.40
2022-08-21T18:58:34.217Z,31.85
2022-08-21T19:01:36.502Z,44.20
2022-08-21T19:04:44.793Z,50.60
2022-08-21T19:08:00.541Z,60.63
2022-08-21T19:11:03.130Z,43.20
2022-08-21T19:14:09.365Z,44.20
2022-08-21T19:17:17.781Z,41.75
2022-08-21T19:20:32.897Z,48.08
2022-08-21T19:23:35.780Z,53.75
2022-08-21T19:26:37.885Z,45.88
2022-08-21T19:29:40.943Z,39.30
2022-08-21T19:32:47.076Z,46.30
2022-08-21T19:35:52.513Z,56.63
2022-08-21T19:38:54.847Z,42.15
2022-08-21T19:41:58.722Z,53.13
2022-08-21T19:45:01.459Z,39.67
2022-08-21T19:48:04.199Z,43.03
2022-08-21T19:51:06.420Z,46.53
2022-08-21T19:54:29.768Z,42.27
2022-08-21T19:57:31.816Z,39.17
2022-08-21T20:00:35.351Z,42.55
2022-08-21T20:03:37.859Z,37.45
2022-08-21T20:06:45.084Z,37.20
2022-08-21T20:09:47.017Z,54.53
2022-08-21T20:12:52.444Z,35.42
2022-08-21T20:15:55.039Z,32.10
2022-08-21T20:18:57.192Z,38.72
2022-08-21T20:22:00.592Z,26.52
2022-08-21T20:25:04.293Z,42.88
2022-08-21T20:28:09.436Z,29.27
2022-08-21T20:31:11.603Z,41.85
2022-08-21T20:34:16.849Z,41.88
2022-08-21T20:37:36.879Z,26.08
2022-08-21T20:40:39.648Z,37.17
2022-08-21T20:43:42.575Z,50.65
2022-08-21T20:49:54.716Z,33.55
2022-08-21T20:53:12.259Z,39.53
2022-08-21T20:56:44.496Z,26.15
2022-08-21T20:59:55.462Z,37.50
2022-08-21T21:03:06.969Z,32.75
2022-08-21T21:06:13.785Z,35.13
2022-08-21T21:09:22.102Z,40.92
2022-08-21T21:12:36.563Z,38.25
2022-08-21T21:15:44.643Z,38.20
2022-08-21T21:18:53.399Z,25.77
2022-08-21T21:22:13.057Z,32.83
2022-08-21T21:25:18.419Z,37.47
2022-08-21T21:28:33.153Z,26.73
2022-08-21T21:31:37.172Z,22.27
2022-08-21T21:34:42.698Z,27.75
2022-08-21T21:37:47.474Z,26.30
2022-08-21T21:41:21.082Z,27.33
2022-08-21T21:44:48.155Z,24.10
2022-08-21T21:48:11.560Z,26.85
2022-08-21T21:51:40.096Z,26.15
2022-08-21T21:54:51.969Z,22.98
2022-08-21T21:58:16.653Z,32.85
2022-08-21T22:01:34.293Z,28.25
2022-08-21T22:04:59.723Z,24.02
2022-08-21T22:08:32.348Z,27.30
2022-08-21T22:12:01.022Z,30.23
2022-08-21T22:15:05.981Z,20.70
2022-08-21T22:18:11.121Z,26.90
2022-08-21T22:21:33.016Z,26.42
2022-08-21T22:24:41.060Z,29.33
2022-08-21T22:27:45.787Z,32.15
2022-08-21T22:30:52.731Z,27.95
2022-08-21T22:34:14.310Z,26.55
2022-08-21T22:37:20.273Z,27.17
2022-08-21T22:40:26.316Z,30.58
2022-08-21T22:43:28.623Z,20.15
2022-08-21T22:46:51.151Z,25.65
2022-08-21T22:49:54.923Z,26.20
2022-08-21T22:53:01.681Z,22.63
2022-08-21T22:56:05.563Z,21.20
2022-08-21T22:59:41.875Z,24.02
2022-08-21T23:02:52.233Z,24.52
2022-08-21T23:05:54.654Z,23.02
2022-08-21T23:12:36.839Z,27.08
2022-08-21T23:15:54.526Z,25.38
2022-08-21T23:19:11.624Z,25.85
2022-08-21T23:22:28.353Z,18.33
2022-08-21T23:25:55.008Z,23.00
2022-08-21T23:29:36.379Z,23.05
2022-08-21T23:33:12.913Z,23.88
2022-08-21T23:36:55.667Z,20.05
2022-08-21T23:40:02.996Z,25.20
2022-08-21T23:43:26.661Z,16.88
2022-08-21T23:46:33.996Z,29.67
2022-08-21T23:50:05.674Z,17.02
2022-08-21T23:53:50.520Z,21.50
2022-08-21T23:57:31.454Z,27.75
